Time;durP1;ratioP1;P1;durP2;ratioP2;P2;SDS_P1;SDS_P2;PMS_P1;PMS_P2;Temp;Humidity;BMP_temperature;BMP_pressure;BME280_temperature;BME280_humidity;BME280_pressure;Samples;Min_cycle;Max_cycle;Signal;HPM_P1;HPM_P2
2023/01/28 00:01:47;;;;;;;12.07;2.35;;;;;;;5.17;88.57;102399.81;5057387;28;20037;-67
2023/01/28 00:04:12;;;;;;;7.43;1.90;;;;;;;5.17;88.89;102392.66;5055416;28;20029;-67
2023/01/28 00:06:38;;;;;;;11.65;2.95;;;;;;;5.04;88.86;102364.44;5054602;28;20150;-67
2023/01/28 00:09:03;;;;;;;11.38;2.40;;;;;;;5.24;88.23;102393.00;5054003;28;20112;-67
2023/01/28 00:11:28;;;;;;;7.45;2.13;;;;;;;5.17;88.44;102381.97;5055149;28;20506;-67
2023/01/28 00:13:54;;;;;;;6.57;1.90;;;;;;;5.24;88.54;102392.16;5055606;28;20088;-67
2023/01/28 00:16:21;;;;;;;12.48;2.40;;;;;;;5.25;88.92;102384.00;5037585;28;20029;-67
2023/01/28 00:18:47;;;;;;;10.27;2.50;;;;;;;5.29;88.67;102380.13;5053886;28;20622;-68
2023/01/28 00:21:14;;;;;;;6.85;2.33;;;;;;;5.27;88.82;102375.91;5053612;28;20124;-67
2023/01/28 00:23:42;;;;;;;9.82;2.60;;;;;;;5.28;89.00;102373.09;5055296;28;20032;-67
2023/01/28 00:26:13;;;;;;;9.07;2.15;;;;;;;5.31;89.25;102375.50;5055284;28;20033;-67
2023/01/28 00:28:39;;;;;;;9.52;1.80;;;;;;;5.27;88.92;102368.75;5055048;28;20024;-67
2023/01/28 00:31:10;;;;;;;8.95;2.88;;;;;;;5.31;88.95;102347.97;5053880;28;20035;-67
2023/01/28 00:33:36;;;;;;;11.20;2.33;;;;;;;5.37;88.92;102355.47;5055231;28;20036;-67
2023/01/28 00:36:03;;;;;;;12.40;2.67;;;;;;;5.35;88.54;102347.59;5053604;28;20040;-67
2023/01/28 00:38:28;;;;;;;8.80;3.08;;;;;;;5.35;89.26;102341.41;5055070;28;20021;-67
2023/01/28 00:40:54;;;;;;;9.05;2.50;;;;;;;5.38;88.95;102336.66;5054237;28;20408;-67
2023/01/28 00:43:20;;;;;;;11.25;2.70;;;;;;;5.42;88.71;102338.09;5053021;28;20025;-67
2023/01/28 00:45:46;;;;;;;13.75;2.22;;;;;;;5.41;88.59;102333.72;5054813;28;20444;-67
2023/01/28 00:48:11;;;;;;;10.07;2.35;;;;;;;5.40;88.71;102333.88;5055196;28;20033;-68
2023/01/28 00:50:38;;;;;;;14.60;2.70;;;;;;;5.42;88.82;102331.91;5053841;28;20568;-67
2023/01/28 00:53:04;;;;;;;9.15;2.72;;;;;;;5.46;88.61;102324.47;5053842;28;20067;-67
2023/01/28 00:55:29;;;;;;;11.52;3.00;;;;;;;5.46;88.93;102320.00;5054538;28;20024;-67
2023/01/28 00:57:54;;;;;;;12.60;2.63;;;;;;;5.43;89.55;102317.59;5054818;28;20119;-67
2023/01/28 01:00:24;;;;;;;14.32;2.75;;;;;;;5.49;89.54;102310.88;5053516;28;20037;-67
2023/01/28 01:02:51;;;;;;;11.00;2.45;;;;;;;5.46;89.84;102305.78;5052244;28;20029;-67
2023/01/28 01:05:17;;;;;;;11.63;2.50;;;;;;;5.46;89.66;102314.66;5056311;28;20024;-67
2023/01/28 01:07:42;;;;;;;14.63;2.28;;;;;;;5.49;89.48;102294.88;5057124;28;20029;-67
2023/01/28 01:10:15;;;;;;;9.23;2.17;;;;;;;5.55;89.40;102300.53;5055571;28;20044;-67
2023/01/28 01:12:40;;;;;;;10.57;1.80;;;;;;;5.60;89.82;102303.66;5055724;28;20056;-68
2023/01/28 01:15:07;;;;;;;8.15;1.73;;;;;;;5.52;89.77;102290.09;5056926;28;20025;-68
2023/01/28 01:17:33;;;;;;;9.27;2.10;;;;;;;5.57;89.86;102287.91;5053549;28;20025;-67
2023/01/28 01:19:59;;;;;;;10.30;1.90;;;;;;;5.62;89.64;102277.66;5053441;28;20039;-67
2023/01/28 01:22:24;;;;;;;11.95;2.42;;;;;;;5.65;89.81;102288.09;5054350;28;20071;-67
2023/01/28 01:24:49;;;;;;;14.32;2.40;;;;;;;5.57;90.37;102279.91;5051842;28;20087;-67
2023/01/28 01:27:15;;;;;;;11.70;2.28;;;;;;;5.53;90.20;102264.25;5053874;28;20480;-67
2023/01/28 01:29:40;;;;;;;11.63;2.05;;;;;;;5.65;90.03;102269.41;5053116;28;20036;-67
2023/01/28 01:32:06;;;;;;;7.20;2.00;;;;;;;5.68;89.83;102254.94;5034771;28;20036;-67
2023/01/28 01:34:31;;;;;;;4.22;1.60;;;;;;;5.69;89.83;102255.78;5050552;28;20039;-68
2023/01/28 01:36:58;;;;;;;10.50;2.03;;;;;;;5.55;90.80;102255.13;5050768;28;20490;-67
2023/01/28 01:39:23;;;;;;;11.07;2.00;;;;;;;5.71;90.45;102267.19;5052912;28;20024;-67
2023/01/28 01:41:48;;;;;;;16.92;2.80;;;;;;;5.69;90.36;102261.97;5057042;28;20488;-68
2023/01/28 01:44:48;;;;;;;8.73;1.83;;;;;;;5.73;90.35;102244.72;5054637;28;20333;-67
2023/01/28 01:47:16;;;;;;;12.25;2.58;;;;;;;5.79;90.20;102241.50;5054588;28;20052;-68
2023/01/28 01:49:41;;;;;;;10.88;2.05;;;;;;;5.83;90.13;102258.13;5053328;28;20039;-67
2023/01/28 01:52:14;;;;;;;9.43;1.85;;;;;;;5.78;90.23;102245.16;5054066;28;20123;-67
2023/01/28 01:54:43;;;;;;;12.27;1.73;;;;;;;5.79;89.83;102241.50;5053705;28;20112;-67
2023/01/28 01:57:14;;;;;;;9.02;1.85;;;;;;;5.83;89.97;102244.78;5051743;28;20029;-67
2023/01/28 01:59:42;;;;;;;13.00;1.90;;;;;;;5.74;90.20;102242.91;5049780;28;20384;-67
2023/01/28 02:02:10;;;;;;;9.55;1.50;;;;;;;5.80;90.10;102240.53;5051228;28;20044;-68
2023/01/28 02:04:38;;;;;;;9.80;2.13;;;;;;;5.83;90.35;102237.59;5052229;28;20029;-68
2023/01/28 02:07:05;;;;;;;10.50;2.05;;;;;;;5.81;90.48;102230.69;5053783;28;20525;-67
2023/01/28 02:09:34;;;;;;;8.98;2.42;;;;;;;5.78;90.53;102228.28;5052128;28;20072;-67
2023/01/28 02:12:25;;;;;;;12.52;2.10;;;;;;;5.89;90.06;102231.75;5052385;28;20055;-67
2023/01/28 02:14:55;;;;;;;11.95;1.80;;;;;;;5.88;90.01;102230.03;5052268;28;20096;-67
2023/01/28 02:17:21;;;;;;;8.40;1.85;;;;;;;5.86;90.19;102221.31;5052054;28;20032;-68
2023/01/28 02:20:05;;;;;;;6.97;1.88;;;;;;;5.91;90.11;102222.72;5051464;28;20041;-67
2023/01/28 02:23:06;;;;;;;17.95;2.50;;;;;;;5.78;90.75;102214.94;5052517;28;20082;-67
2023/01/28 02:25:55;;;;;;;8.93;1.90;;;;;;;5.84;90.36;102222.41;5040484;28;20032;-66
2023/01/28 02:28:41;;;;;;;12.45;2.53;;;;;;;5.71;90.70;102225.31;5052533;28;20567;-67
2023/01/28 02:31:13;;;;;;;11.23;1.77;;;;;;;5.74;90.66;102210.84;5051581;28;20051;-67
2023/01/28 02:33:53;;;;;;;12.65;1.85;;;;;;;5.65;90.76;102191.13;5052110;28;20043;-68
2023/01/28 02:36:50;;;;;;;12.35;2.28;;;;;;;5.79;90.72;102200.59;5052716;28;20029;-67
2023/01/28 02:39:21;;;;;;;11.27;2.17;;;;;;;5.79;91.10;102193.41;5053820;28;20027;-68
2023/01/28 02:41:57;;;;;;;12.10;2.42;;;;;;;5.85;91.02;102194.72;5052940;28;20110;-67
2023/01/28 02:44:23;;;;;;;8.82;2.47;;;;;;;5.70;91.00;102169.38;5052541;28;20035;-67
2023/01/28 02:49:48;;;;;;;15.20;2.20;;;;;;;5.88;91.17;102189.09;5055872;28;20082;-67
2023/01/28 02:56:03;;;;;;;12.50;2.13;;;;;;;5.88;90.72;102183.78;5053594;28;20137;-67
2023/01/28 02:58:36;;;;;;;13.30;2.35;;;;;;;5.93;90.55;102181.59;5038899;28;20068;-67
2023/01/28 03:01:25;;;;;;;11.23;2.40;;;;;;;5.82;91.33;102162.94;5056268;28;20450;-67
2023/01/28 03:03:53;;;;;;;13.02;2.45;;;;;;;5.84;91.16;102166.31;5050832;28;20029;-67
2023/01/28 03:06:24;;;;;;;14.50;2.47;;;;;;;5.81;91.18;102163.91;5051690;28;20478;-67
2023/01/28 03:38:17;;;;;;;12.27;1.88;;;;;;;6.11;90.37;102139.84;5057425;28;20055;-67
2023/01/28 03:40:55;;;;;;;10.55;2.03;;;;;;;6.05;90.03;102123.53;5057488;28;20033;-67
2023/01/28 03:43:20;;;;;;;15.07;2.90;;;;;;;6.05;90.52;102145.75;5056834;28;20480;-67
2023/01/28 03:45:50;;;;;;;13.70;2.20;;;;;;;6.08;90.03;102131.28;5055335;28;20036;-67
2023/01/28 03:48:20;;;;;;;12.40;1.88;;;;;;;6.07;90.68;102140.28;5054680;28;20055;-67
2023/01/28 03:50:47;;;;;;;12.13;2.10;;;;;;;6.07;90.84;102132.25;5051029;28;20040;-67
2023/01/28 03:53:14;;;;;;;19.48;2.25;;;;;;;6.07;90.91;102137.59;5056113;28;20029;-67
2023/01/28 03:55:40;;;;;;;9.43;1.80;;;;;;;6.14;90.32;102124.53;5057086;28;20430;-67
2023/01/28 03:58:06;;;;;;;12.30;2.25;;;;;;;6.06;90.17;102118.06;5053146;28;20033;-67
2023/01/28 04:00:36;;;;;;;10.35;2.42;;;;;;;6.11;90.60;102122.97;5053052;28;20036;-67
2023/01/28 04:03:03;;;;;;;12.55;2.50;;;;;;;6.13;90.83;102126.38;5053009;28;20025;-67
2023/01/28 04:05:29;;;;;;;14.07;2.88;;;;;;;5.96;91.40;102119.88;5054642;28;20036;-67
2023/01/28 04:07:55;;;;;;;12.85;2.20;;;;;;;6.06;90.98;102115.38;5055373;28;20108;-67
2023/01/28 04:10:21;;;;;;;10.73;2.30;;;;;;;6.00;91.26;102115.09;5054353;28;20075;-67
2023/01/28 04:12:48;;;;;;;10.05;1.80;;;;;;;6.09;90.96;102119.59;5054393;28;20020;-67
2023/01/28 04:15:15;;;;;;;12.25;2.42;;;;;;;6.16;90.71;102123.44;5041668;28;20175;-67
2023/01/28 04:17:47;;;;;;;11.75;2.13;;;;;;;6.10;90.95;102132.84;5056199;28;20025;-67
2023/01/28 04:20:13;;;;;;;9.98;1.52;;;;;;;5.96;91.35;102103.84;5055457;28;20052;-67
2023/01/28 04:22:39;;;;;;;15.65;1.98;;;;;;;6.14;91.00;102121.88;5039651;28;20051;-67
2023/01/28 04:25:05;;;;;;;13.32;2.20;;;;;;;6.10;90.46;102099.94;5054476;28;20029;-67
2023/01/28 04:27:31;;;;;;;10.60;2.08;;;;;;;6.01;91.36;102101.59;5054886;28;20020;-67
2023/01/28 04:29:56;;;;;;;14.73;2.13;;;;;;;6.23;90.59;102113.03;5059391;28;20029;-67
2023/01/28 04:32:22;;;;;;;10.32;1.85;;;;;;;6.18;91.01;102112.59;5058845;28;20044;-67
2023/01/28 04:34:47;;;;;;;14.30;2.67;;;;;;;6.29;90.12;102115.13;5057284;28;20029;-67
2023/01/28 04:37:12;;;;;;;16.48;2.28;;;;;;;6.23;90.49;102100.50;5055531;28;20075;-67
2023/01/28 04:39:38;;;;;;;14.30;2.10;;;;;;;6.21;90.65;102102.47;5020494;28;20373;-67
2023/01/28 04:42:03;;;;;;;18.80;2.40;;;;;;;6.26;90.51;102099.38;5054660;28;20387;-68
2023/01/28 04:44:29;;;;;;;18.35;2.17;;;;;;;6.23;90.30;102084.47;5054860;28;20025;-67
2023/01/28 04:46:54;;;;;;;12.88;2.38;;;;;;;6.30;90.48;102095.44;5053295;28;20476;-67
2023/01/28 04:49:20;;;;;;;9.60;1.70;;;;;;;6.25;90.93;102095.00;5054729;28;20025;-68
2023/01/28 04:51:45;;;;;;;16.73;2.63;;;;;;;6.29;90.66;102088.38;5054791;28;20056;-67
2023/01/28 04:54:11;;;;;;;14.13;2.20;;;;;;;6.35;90.68;102086.00;5053430;28;20037;-67
2023/01/28 04:56:37;;;;;;;19.63;2.50;;;;;;;6.38;90.45;102081.38;5054022;28;20480;-67
2023/01/28 04:59:03;;;;;;;11.30;1.80;;;;;;;6.37;90.81;102058.31;5052959;28;20483;-67
2023/01/28 05:01:29;;;;;;;19.42;2.30;;;;;;;6.26;91.29;102052.13;5054067;28;20028;-68
2023/01/28 05:03:54;;;;;;;10.05;1.80;;;;;;;6.27;91.05;102045.78;5055151;28;20036;-67
2023/01/28 05:06:20;;;;;;;14.85;2.28;;;;;;;6.33;90.81;102047.06;5054710;28;20020;-67
2023/01/28 05:08:46;;;;;;;10.55;2.03;;;;;;;6.38;90.79;102039.44;5054802;28;20092;-67
2023/01/28 05:11:12;;;;;;;10.88;1.90;;;;;;;6.31;91.35;102049.84;5055942;28;20032;-67
2023/01/28 05:13:38;;;;;;;8.93;1.92;;;;;;;6.36;91.28;102041.44;5055023;28;20373;-67
2023/01/28 05:16:05;;;;;;;11.68;1.80;;;;;;;6.29;91.48;102050.97;5052915;28;20029;-67
2023/01/28 05:18:30;;;;;;;13.52;2.22;;;;;;;6.28;91.51;102039.44;5051902;28;20128;-67
2023/01/28 05:20:57;;;;;;;11.07;2.20;;;;;;;6.23;91.94;102046.22;5053129;28;20124;-67
2023/01/28 05:23:22;;;;;;;20.13;2.83;;;;;;;6.36;91.40;102033.41;5052241;28;20032;-67
2023/01/28 05:25:48;;;;;;;14.10;2.05;;;;;;;6.34;91.51;102030.03;5053727;28;20021;-68
2023/01/28 05:28:14;;;;;;;13.57;2.28;;;;;;;6.36;91.51;102028.06;5053211;28;20448;-67
2023/01/28 05:30:39;;;;;;;20.75;2.45;;;;;;;6.27;91.94;102021.72;5053977;28;20604;-67
2023/01/28 05:33:05;;;;;;;11.05;1.73;;;;;;;6.24;92.14;102035.38;5058915;28;20052;-67
2023/01/28 05:35:30;;;;;;;16.58;1.95;;;;;;;6.34;92.38;102022.00;5059320;28;20062;-67
2023/01/28 05:37:56;;;;;;;14.45;2.45;;;;;;;6.24;91.84;102015.81;5054326;28;20036;-67
2023/01/28 05:40:21;;;;;;;21.50;3.13;;;;;;;6.34;91.67;102025.50;5052907;28;20043;-67
2023/01/28 05:42:47;;;;;;;16.88;2.60;;;;;;;6.37;91.62;102043.09;5051507;28;20025;-67
2023/01/28 05:45:12;;;;;;;13.73;2.40;;;;;;;6.30;92.05;102041.97;5053869;28;20071;-67
2023/01/28 05:47:38;;;;;;;13.00;2.47;;;;;;;6.35;92.16;102048.56;5035903;28;20067;-67
2023/01/28 05:50:05;;;;;;;16.42;2.53;;;;;;;6.34;91.59;102035.38;5053882;28;20116;-67
2023/01/28 05:52:30;;;;;;;20.73;2.60;;;;;;;6.26;91.89;102032.56;5051952;28;20028;-67
2023/01/28 05:54:55;;;;;;;10.35;2.17;;;;;;;6.30;92.36;102047.34;5052590;28;20025;-67
2023/01/28 05:57:21;;;;;;;19.67;2.45;;;;;;;6.29;92.42;102043.81;5051937;28;20457;-67
2023/01/28 05:59:46;;;;;;;9.52;1.92;;;;;;;6.28;92.50;102060.81;5053547;28;20102;-67
2023/01/28 06:02:12;;;;;;;16.42;2.42;;;;;;;6.35;92.29;102055.75;5051972;28;20039;-67
2023/01/28 06:04:38;;;;;;;13.02;2.20;;;;;;;6.24;93.31;102066.59;5052024;28;20041;-67
2023/01/28 06:07:03;;;;;;;11.07;2.50;;;;;;;6.19;93.53;102067.03;5035680;28;20101;-68
2023/01/28 06:09:29;;;;;;;15.57;2.70;;;;;;;6.17;93.81;102062.81;5053489;28;20376;-67
2023/01/28 06:11:54;;;;;;;10.55;2.30;;;;;;;6.26;93.25;102049.44;5053314;28;20048;-67
2023/01/28 06:14:21;;;;;;;12.93;2.30;;;;;;;6.26;93.50;102045.94;5052117;28;20025;-67
2023/01/28 06:16:46;;;;;;;13.02;3.00;;;;;;;6.27;93.01;102037.75;5052064;28;20037;-68
2023/01/28 06:19:12;;;;;;;16.33;2.58;;;;;;;6.23;93.50;102035.53;5053835;28;20124;-68
2023/01/28 06:21:37;;;;;;;17.15;4.22;;;;;;;6.15;93.70;102036.19;5054854;28;20123;-67
2023/01/28 06:24:03;;;;;;;11.40;2.75;;;;;;;6.21;93.77;102029.47;5038044;28;20055;-67
2023/01/28 06:26:28;;;;;;;15.45;3.60;;;;;;;6.06;93.69;102002.28;5054077;28;20518;-67
2023/01/28 06:28:54;;;;;;;18.50;2.75;;;;;;;6.18;93.88;102035.09;5052667;28;20033;-67
2023/01/28 06:31:19;;;;;;;16.98;3.13;;;;;;;6.18;94.10;102032.41;5054195;28;20036;-67
2023/01/28 06:33:45;;;;;;;15.68;2.67;;;;;;;6.12;93.90;102015.09;5035104;28;20404;-68
2023/01/28 06:36:10;;;;;;;12.07;2.42;;;;;;;6.08;94.86;102017.22;5051528;28;20488;-67
2023/01/28 06:38:35;;;;;;;12.77;2.50;;;;;;;6.00;94.46;101998.38;5051385;28;20032;-67
2023/01/28 06:41:01;;;;;;;14.98;2.97;;;;;;;6.14;94.58;102006.97;5054234;28;20060;-67
2023/01/28 06:43:27;;;;;;;12.77;2.92;;;;;;;6.14;94.78;102026.50;5050443;28;20066;-67
2023/01/28 06:45:59;;;;;;;16.25;2.67;;;;;;;6.16;94.65;102051.28;5053181;28;20519;-67
2023/01/28 06:48:25;;;;;;;18.50;3.22;;;;;;;6.27;93.96;102051.13;5051581;28;20071;-67
2023/01/28 06:50:51;;;;;;;12.30;3.33;;;;;;;6.27;94.13;102044.94;5052298;28;20078;-67
2023/01/28 06:53:17;;;;;;;17.25;3.53;;;;;;;6.13;93.82;102018.63;5055274;28;20107;-67
2023/01/28 06:55:43;;;;;;;12.35;3.20;;;;;;;6.26;94.38;102035.25;5057941;28;20097;-67
2023/01/28 06:58:09;;;;;;;15.38;3.20;;;;;;;6.27;94.15;102016.38;5053939;28;20504;-67
2023/01/28 07:00:34;;;;;;;18.02;3.58;;;;;;;6.39;93.62;102018.88;5054390;28;20033;-67
2023/01/28 07:03:00;;;;;;;26.15;3.50;;;;;;;6.36;93.89;102014.69;5058341;28;20035;-67
2023/01/28 07:05:26;;;;;;;14.05;3.03;;;;;;;6.38;94.03;102018.06;5040029;28;20033;-67
2023/01/28 07:07:51;;;;;;;14.20;2.72;;;;;;;6.38;94.17;102028.75;5040579;28;20040;-67
2023/01/28 07:10:17;;;;;;;17.27;3.47;;;;;;;6.29;94.40;102016.22;5055338;28;20041;-67
2023/01/28 07:12:42;;;;;;;12.95;2.88;;;;;;;6.31;93.92;102020.44;5056455;28;20012;-66
2023/01/28 07:15:09;;;;;;;16.65;2.90;;;;;;;6.41;94.23;102027.63;5055227;28;20056;-67
2023/01/28 07:17:38;;;;;;;15.35;3.05;;;;;;;6.31;94.14;101996.38;5057101;28;20498;-68
2023/01/28 07:20:04;;;;;;;17.20;3.53;;;;;;;6.32;94.58;102018.59;5057297;28;20041;-67
2023/01/28 07:22:29;;;;;;;13.95;3.10;;;;;;;6.33;94.87;102015.81;5038660;28;20082;-67
2023/01/28 07:24:55;;;;;;;16.58;2.72;;;;;;;6.41;94.74;102020.44;5055397;28;20017;-67
2023/01/28 07:27:20;;;;;;;11.05;2.67;;;;;;;6.38;94.86;102028.75;5037712;28;20059;-66
2023/01/28 07:29:46;;;;;;;18.70;2.67;;;;;;;6.17;96.29;102020.88;5056035;28;20040;-66
2023/01/28 07:32:11;;;;;;;16.63;3.05;;;;;;;6.24;96.14;102018.50;5055333;28;20146;-66
2023/01/28 07:34:38;;;;;;;14.70;2.60;;;;;;;6.40;95.97;102033.97;5053601;28;20120;-67
2023/01/28 07:37:05;;;;;;;21.15;2.55;;;;;;;6.52;95.36;102040.84;5054604;28;20044;-67
2023/01/28 07:39:31;;;;;;;11.50;2.58;;;;;;;6.51;95.25;102041.81;5055402;28;20021;-67
2023/01/28 07:41:56;;;;;;;14.68;3.13;;;;;;;6.50;95.24;102032.97;5038166;28;20036;-68
2023/01/28 07:44:21;;;;;;;17.30;3.25;;;;;;;6.50;95.67;102030.28;5055390;28;20045;-67
2023/01/28 07:46:47;;;;;;;14.43;3.00;;;;;;;6.50;95.18;102032.13;5054980;28;20483;-66
2023/01/28 07:49:12;;;;;;;16.35;3.05;;;;;;;6.57;95.12;102028.72;5054390;28;20071;-66
2023/01/28 07:51:38;;;;;;;15.57;3.42;;;;;;;6.52;95.57;102035.47;5056168;28;20086;-68
2023/01/28 07:54:03;;;;;;;17.50;3.28;;;;;;;6.50;95.63;102030.28;5054963;28;20029;-67
2023/01/28 07:56:30;;;;;;;13.80;2.90;;;;;;;6.44;95.61;101998.78;5056439;28;20021;-67
2023/01/28 07:58:55;;;;;;;16.60;3.47;;;;;;;6.57;95.62;102030.56;5055125;28;20036;-66
2023/01/28 08:01:21;;;;;;;11.30;3.10;;;;;;;6.67;94.96;102030.56;5057277;28;20696;-66
2023/01/28 08:03:46;;;;;;;17.15;3.05;;;;;;;6.56;94.78;102018.19;5058971;28;20029;-68
2023/01/28 08:06:12;;;;;;;15.52;4.68;;;;;;;6.64;95.12;102012.94;5040856;28;20032;-67
2023/01/28 08:08:37;;;;;;;20.65;3.65;;;;;;;6.64;95.30;102006.75;5054995;28;20049;-67
2023/01/28 08:11:10;;;;;;;21.85;3.05;;;;;;;6.55;95.85;101987.06;5053704;28;20025;-66
2023/01/28 08:13:36;;;;;;;20.67;3.20;;;;;;;6.74;94.90;102013.78;5053772;28;20092;-64
2023/01/28 08:16:01;;;;;;;13.50;2.60;;;;;;;6.81;94.83;102014.03;5053792;28;20116;-66
2023/01/28 08:18:27;;;;;;;17.77;3.08;;;;;;;6.95;94.55;102018.06;5052353;28;20475;-66
2023/01/28 08:20:57;;;;;;;13.45;2.90;;;;;;;6.90;95.03;102015.84;5055153;28;20032;-66
2023/01/28 08:23:25;;;;;;;13.95;2.63;;;;;;;6.85;94.76;101996.69;5054444;28;20114;-66
2023/01/28 08:25:53;;;;;;;17.80;3.70;;;;;;;6.85;95.09;101975.31;5054134;28;20111;-66
2023/01/28 08:28:20;;;;;;;20.95;3.15;;;;;;;7.14;93.94;101985.91;5054634;28;20037;-66
2023/01/28 08:30:45;;;;;;;18.33;2.67;;;;;;;7.15;94.03;101987.59;5055141;28;20024;-66
2023/01/28 08:33:13;;;;;;;14.73;2.92;;;;;;;7.16;94.58;101983.94;5055009;28;20554;-66
2023/01/28 08:35:39;;;;;;;14.30;3.10;;;;;;;7.12;94.74;101981.66;5054526;28;20116;-66
2023/01/28 08:38:06;;;;;;;17.08;3.47;;;;;;;7.14;94.59;101979.72;5054355;28;20064;-66
2023/01/28 08:40:33;;;;;;;17.30;3.47;;;;;;;7.13;94.57;101967.31;5054211;28;20098;-66
2023/01/28 08:42:58;;;;;;;14.85;2.95;;;;;;;7.16;94.43;101962.50;5057346;28;20087;-66
2023/01/28 08:45:25;;;;;;;18.38;3.15;;;;;;;7.24;94.13;101962.59;5056020;28;20033;-66
2023/01/28 08:47:53;;;;;;;17.42;3.20;;;;;;;7.17;94.63;101956.16;5055852;28;20017;-66
2023/01/28 08:50:20;;;;;;;14.55;2.70;;;;;;;7.06;94.45;101949.19;5054452;28;20040;-66
2023/01/28 08:52:48;;;;;;;19.73;2.80;;;;;;;6.99;94.93;101949.91;5054050;28;20112;-66
2023/01/28 08:55:15;;;;;;;19.83;3.00;;;;;;;7.09;95.00;101963.25;5053774;28;20070;-66
2023/01/28 08:57:40;;;;;;;16.88;2.47;;;;;;;7.15;94.63;101973.34;5053176;28;20033;-67
2023/01/28 09:00:09;;;;;;;16.40;2.83;;;;;;;7.09;94.89;101953.41;5034991;28;20033;-66
2023/01/28 09:02:36;;;;;;;16.48;3.13;;;;;;;7.19;94.23;101958.72;5053139;28;20025;-66
2023/01/28 09:05:02;;;;;;;17.00;2.78;;;;;;;7.19;94.09;101964.91;5053897;28;20025;-66
2023/01/28 09:07:27;;;;;;;15.15;2.92;;;;;;;7.18;94.04;101941.78;5053631;28;20785;-66
2023/01/28 09:09:53;;;;;;;15.07;2.70;;;;;;;7.28;94.29;101958.66;5052597;28;20083;-66
2023/01/28 09:12:18;;;;;;;16.35;2.60;;;;;;;7.30;94.24;101950.47;5052093;28;20321;-66
2023/01/28 09:14:43;;;;;;;18.13;2.40;;;;;;;7.28;94.24;101955.97;5053824;28;20039;-66
2023/01/28 09:17:09;;;;;;;17.13;3.00;;;;;;;7.28;94.40;101931.00;5052597;28;20029;-66
2023/01/28 09:19:34;;;;;;;13.27;2.78;;;;;;;7.46;94.14;101947.97;5035638;28;20414;-66
2023/01/28 09:22:03;;;;;;;22.33;2.83;;;;;;;7.40;94.12;101934.34;5035620;28;20094;-66
2023/01/28 09:24:28;;;;;;;18.08;2.42;;;;;;;7.60;93.76;101951.13;5052292;28;20135;-66
2023/01/28 09:26:53;;;;;;;18.52;2.97;;;;;;;7.52;93.63;101939.34;5052424;28;20033;-66
2023/01/28 09:29:19;;;;;;;19.88;2.85;;;;;;;7.63;94.21;101951.66;5052034;28;20040;-66
2023/01/28 09:31:44;;;;;;;21.40;3.00;;;;;;;7.58;93.93;101934.34;5052970;28;20381;-66
2023/01/28 09:34:10;;;;;;;22.55;3.20;;;;;;;7.70;93.87;101941.19;5053025;28;20048;-66
2023/01/28 09:36:35;;;;;;;13.95;2.33;;;;;;;7.69;93.65;101928.78;5052909;28;20033;-66
2023/01/28 09:39:01;;;;;;;11.95;2.45;;;;;;;7.47;94.09;101904.13;5054473;28;20028;-66
2023/01/28 09:41:33;;;;;;;23.10;2.78;;;;;;;7.63;93.97;101929.41;5053736;28;20116;-66
2023/01/28 09:44:04;;;;;;;20.52;2.75;;;;;;;7.66;94.31;101929.09;5053808;28;20065;-66
2023/01/28 09:46:35;;;;;;;19.25;2.85;;;;;;;7.58;94.82;101921.78;5053548;28;20043;-66
2023/01/28 09:49:10;;;;;;;18.80;3.13;;;;;;;7.65;94.37;101925.56;5052103;28;20542;-66
2023/01/28 09:51:43;;;;;;;23.08;3.60;;;;;;;7.66;95.07;101918.38;5053062;28;20024;-67
2023/01/28 09:54:36;;;;;;;13.77;2.72;;;;;;;7.72;94.53;101920.44;5051390;28;20423;-66
2023/01/28 09:57:07;;;;;;;11.35;2.25;;;;;;;7.75;94.03;101920.97;5052720;28;20124;-66
2023/01/28 09:59:36;;;;;;;19.00;2.63;;;;;;;7.70;94.06;101927.78;5052636;28;20466;-66
2023/01/28 10:02:48;;;;;;;18.45;2.50;;;;;;;7.69;94.52;101921.59;5052611;28;20099;-67
2023/01/28 10:05:19;;;;;;;15.73;2.60;;;;;;;7.66;94.26;101923.72;5051594;28;20029;-66
2023/01/28 10:08:07;;;;;;;18.95;2.20;;;;;;;7.72;94.35;101923.13;5051863;28;20021;-66
2023/01/28 10:10:56;;;;;;;16.42;2.65;;;;;;;7.62;94.96;101912.47;5052994;28;20029;-66
2023/01/28 10:13:54;;;;;;;18.75;2.13;;;;;;;7.75;94.44;101918.31;5044680;28;20044;-66
2023/01/28 10:16:45;;;;;;;16.92;2.15;;;;;;;7.68;94.67;101909.19;5052856;28;20020;-66
2023/01/28 10:19:11;;;;;;;21.33;3.13;;;;;;;7.67;94.55;101899.47;5052174;28;20073;-66
2023/01/28 10:21:42;;;;;;;18.95;2.47;;;;;;;7.74;94.75;101902.38;5051714;28;20499;-66
2023/01/28 10:24:17;;;;;;;16.90;2.58;;;;;;;7.81;94.46;101910.63;5051408;28;20039;-67
2023/01/28 10:26:43;;;;;;;18.52;2.50;;;;;;;7.80;94.98;101900.91;5053089;28;20048;-66
2023/01/28 10:29:17;;;;;;;17.73;2.30;;;;;;;7.81;94.21;101905.28;5052352;28;20035;-66
2023/01/28 10:31:54;;;;;;;19.58;3.33;;;;;;;7.78;94.86;101895.69;5053109;28;20403;-67
2023/01/28 10:34:21;;;;;;;18.77;2.63;;;;;;;7.88;94.62;101893.81;5052782;28;20045;-66
2023/01/28 10:36:47;;;;;;;19.60;2.78;;;;;;;7.90;94.55;101882.91;5052574;28;20020;-66
2023/01/28 10:39:15;;;;;;;18.08;2.97;;;;;;;7.89;94.79;101890.13;5052667;28;20550;-66
2023/01/28 10:41:40;;;;;;;19.60;2.80;;;;;;;7.79;94.93;101891.22;5052871;28;20078;-66
2023/01/28 10:44:15;;;;;;;21.65;2.88;;;;;;;7.83;94.94;101903.28;5051031;28;20112;-66
2023/01/28 10:46:45;;;;;;;21.05;3.22;;;;;;;7.75;94.92;101886.16;5051083;28;20025;-67
2023/01/28 10:49:13;;;;;;;25.23;3.00;;;;;;;7.93;95.14;101904.03;5051109;28;20063;-66
2023/01/28 10:51:41;;;;;;;19.63;2.47;;;;;;;7.90;95.45;101888.28;5051128;28;20021;-66
2023/01/28 10:54:24;;;;;;;22.33;2.80;;;;;;;8.06;94.74;101874.16;5051600;28;20017;-66
2023/01/28 10:56:53;;;;;;;20.98;2.47;;;;;;;8.04;95.39;101876.16;5052209;28;20472;-66
2023/01/28 10:59:24;;;;;;;18.48;2.63;;;;;;;8.06;95.55;101879.53;5051615;28;20461;-66
2023/01/28 11:02:00;;;;;;;22.73;2.65;;;;;;;8.15;95.25;101870.56;5052128;28;20112;-69
2023/01/28 11:04:29;;;;;;;24.65;3.20;;;;;;;8.21;95.27;101872.56;5051789;28;20035;-74
2023/01/28 11:07:04;;;;;;;26.58;4.13;;;;;;;8.19;95.68;101870.06;5051221;28;20025;-66
2023/01/28 11:09:45;;;;;;;22.05;3.08;;;;;;;8.20;95.40;101868.22;5050988;28;20029;-65
2023/01/28 11:12:11;;;;;;;23.73;3.50;;;;;;;8.18;95.65;101864.88;5053376;28;20052;-66
2023/01/28 11:14:37;;;;;;;25.73;3.17;;;;;;;8.18;95.92;101859.50;5051596;28;20048;-65
2023/01/28 11:17:02;;;;;;;23.40;3.17;;;;;;;8.13;95.89;101840.38;5055380;28;20488;-67
2023/01/28 11:19:33;;;;;;;22.40;2.80;;;;;;;7.74;96.84;101779.13;5019630;28;20495;-67
2023/01/28 11:21:59;;;;;;;21.33;2.60;;;;;;;8.07;97.10;101838.31;5052363;28;20171;-67
2023/01/28 11:24:30;;;;;;;21.70;3.30;;;;;;;7.86;97.64;101823.44;5053313;28;20511;-67
2023/01/28 11:26:57;;;;;;;21.30;2.78;;;;;;;8.03;97.70;101834.28;5052494;28;20042;-66
2023/01/28 11:29:33;;;;;;;24.00;2.65;;;;;;;8.06;97.44;101842.00;5051772;28;20037;-66
2023/01/28 11:31:59;;;;;;;24.15;2.95;;;;;;;8.09;97.04;101834.47;5051928;28;20048;-66
2023/01/28 11:34:32;;;;;;;24.90;3.45;;;;;;;8.10;96.69;101829.97;5050707;28;20170;-66
2023/01/28 11:37:15;;;;;;;25.55;3.40;;;;;;;8.10;96.91;101813.88;5051089;28;20131;-66
2023/01/28 11:39:43;;;;;;;23.45;3.90;;;;;;;8.09;97.43;101823.75;5052012;28;20048;-66
2023/01/28 11:42:27;;;;;;;16.55;2.47;;;;;;;8.20;97.06;101819.97;5050610;28;20442;-66
2023/01/28 11:44:52;;;;;;;28.50;3.30;;;;;;;8.30;96.80;101815.31;5052115;28;20107;-66
2023/01/28 11:47:33;;;;;;;25.35;4.05;;;;;;;8.38;96.40;101820.78;5053778;28;20170;-66
2023/01/28 11:50:29;;;;;;;21.17;2.83;;;;;;;8.32;97.27;101816.03;5055663;28;20033;-66
2023/01/28 11:53:22;;;;;;;22.35;2.97;;;;;;;8.41;96.92;101811.53;5055826;28;20047;-67
2023/01/28 11:56:13;;;;;;;21.77;3.10;;;;;;;8.49;97.04;101795.50;5055644;28;20041;-67
2023/01/28 11:59:18;;;;;;;25.42;3.28;;;;;;;8.49;97.54;101787.47;5054949;28;20021;-67
2023/01/28 12:02:07;;;;;;;16.23;3.10;;;;;;;8.48;97.42;101777.75;5054262;28;20427;-67
2023/01/28 12:04:32;;;;;;;12.40;3.38;;;;;;;8.50;97.29;101783.78;5025663;28;20047;-66
2023/01/28 12:07:26;;;;;;;14.27;2.90;;;;;;;8.42;98.46;101792.63;5054646;28;20463;-67
2023/01/28 12:10:01;;;;;;;13.05;2.55;;;;;;;8.53;98.04;101794.19;5055184;28;20043;-67
2023/01/28 12:12:35;;;;;;;;;;;;;;;8.41;97.81;101807.06;5056971;28;20048;-68